Time;durP1;ratioP1;P1;durP2;ratioP2;P2;SDS_P1;SDS_P2;PMS_P1;PMS_P2;Temp;Humidity;BMP_temperature;BMP_pressure;BME280_temperature;BME280_humidity;BME280_pressure;Samples;Min_cycle;Max_cycle;Signal;HPM_P1;HPM_P2
2022/12/25 00:02:05;;;;;;;49.70;31.40;;;;;;;3.78;92.08;100592.03;108712;1261;37394;-74
2022/12/25 00:04:40;;;;;;;54.40;32.30;;;;;;;3.78;91.79;100595.30;108726;1265;37016;-73
2022/12/25 00:07:15;;;;;;;46.20;29.60;;;;;;;3.81;91.93;100607.54;108675;1262;37138;-72
2022/12/25 00:09:49;;;;;;;46.00;29.20;;;;;;;3.80;91.34;100617.89;108773;1265;37227;-72
2022/12/25 00:12:23;;;;;;;43.30;27.20;;;;;;;3.76;91.47;100618.79;108721;1265;36144;-72
2022/12/25 00:14:57;;;;;;;45.20;28.70;;;;;;;3.79;91.75;100624.65;108669;1266;37445;-72
2022/12/25 00:17:31;;;;;;;44.30;29.00;;;;;;;3.83;91.90;100631.67;108703;1275;37076;-71
2022/12/25 00:20:09;;;;;;;44.70;28.60;;;;;;;3.85;91.72;100634.61;108733;1275;37041;-71
2022/12/25 00:22:43;;;;;;;44.00;26.70;;;;;;;3.85;91.82;100641.86;108666;1275;36982;-71
2022/12/25 00:25:18;;;;;;;42.90;27.80;;;;;;;3.85;91.60;100636.16;108612;1275;172602;-73
2022/12/25 00:27:53;;;;;;;42.10;28.00;;;;;;;3.87;92.08;100639.08;108730;1259;36991;-74
2022/12/25 00:30:28;;;;;;;42.70;27.70;;;;;;;3.92;92.13;100641.29;108556;1265;188137;-73
2022/12/25 00:33:02;;;;;;;45.30;28.50;;;;;;;3.96;91.95;100644.04;108718;1275;36980;-74
2022/12/25 00:35:37;;;;;;;48.70;29.30;;;;;;;3.95;91.79;100643.86;108760;1256;37041;-72
2022/12/25 00:38:11;;;;;;;47.70;29.90;;;;;;;3.93;91.92;100646.48;108764;1275;36053;-74
2022/12/25 00:40:48;;;;;;;43.50;28.40;;;;;;;3.88;91.60;100648.21;108756;1275;37060;-73
2022/12/25 00:43:24;;;;;;;42.70;26.70;;;;;;;3.86;91.76;100653.75;108741;1263;37116;-71
2022/12/25 00:46:02;;;;;;;47.00;28.80;;;;;;;3.88;91.64;100657.36;108705;1261;37091;-73
2022/12/25 00:48:36;;;;;;;;;;;;;;;3.86;91.64;100669.29;108795;1268;36983;-74
2022/12/25 00:51:14;;;;;;;43.30;27.50;;;;;;;3.86;92.09;100674.98;108801;1253;38308;-72
2022/12/25 00:53:48;;;;;;;43.70;27.40;;;;;;;3.89;92.15;100685.84;108666;1275;174977;-72
2022/12/25 00:56:24;;;;;;;47.20;27.40;;;;;;;3.91;92.26;100689.28;108775;1267;36577;-74
2022/12/25 00:59:00;;;;;;;42.70;27.70;;;;;;;3.91;92.03;100691.35;108668;1275;37776;-73
2022/12/25 01:01:34;;;;;;;38.10;25.00;;;;;;;3.95;92.38;100698.41;108704;1275;37274;-74
2022/12/25 01:04:13;;;;;;;37.70;24.30;;;;;;;3.99;92.42;100707.70;108682;1275;37134;-70
2022/12/25 01:06:48;;;;;;;38.60;24.30;;;;;;;4.00;92.33;100709.09;108702;1275;37330;-73
2022/12/25 01:12:13;;;;;;;37.60;23.20;;;;;;;4.06;92.65;100710.26;108745;1266;37150;-71
2022/12/25 01:14:47;;;;;;;30.80;20.40;;;;;;;4.07;92.64;100711.79;108727;1275;36361;-71
2022/12/25 01:17:23;;;;;;;35.10;22.20;;;;;;;4.12;92.67;100713.84;108728;1257;36105;-73
2022/12/25 01:19:57;;;;;;;35.10;21.80;;;;;;;4.11;92.39;100709.01;108702;1255;36462;-73
2022/12/25 01:22:33;;;;;;;34.80;21.50;;;;;;;4.12;92.55;100706.23;108774;1272;36955;-74
2022/12/25 01:25:09;;;;;;;31.90;19.50;;;;;;;4.13;92.60;100706.93;108784;1265;37148;-71
2022/12/25 01:27:44;;;;;;;29.10;18.80;;;;;;;4.14;92.56;100705.55;108766;1258;37355;-72
2022/12/25 01:30:18;;;;;;;30.80;19.00;;;;;;;4.16;92.51;100703.63;108732;1275;37084;-73
2022/12/25 01:32:52;;;;;;;29.80;19.20;;;;;;;4.19;92.66;100702.23;108736;1275;36672;-74
2022/12/25 01:35:26;;;;;;;30.80;18.80;;;;;;;4.19;92.68;100701.02;108754;1275;38272;-72
2022/12/25 01:38:01;;;;;;;28.90;18.60;;;;;;;4.18;92.77;100703.61;108743;1264;37262;-72
2022/12/25 01:40:37;;;;;;;29.70;17.70;;;;;;;4.20;92.86;100706.02;108752;1269;37037;-72
2022/12/25 01:43:20;;;;;;;27.20;16.60;;;;;;;4.21;93.02;100707.22;108728;1275;38311;-72
2022/12/25 01:45:55;;;;;;;24.70;16.30;;;;;;;4.21;92.67;100704.45;108797;1275;37094;-75
2022/12/25 01:48:32;;;;;;;25.70;16.50;;;;;;;4.23;92.79;100706.17;108723;1275;37952;-74
2022/12/25 01:51:10;;;;;;;25.70;16.90;;;;;;;4.25;92.92;100711.02;108735;1266;37203;-73
2022/12/25 01:53:46;;;;;;;27.20;17.30;;;;;;;4.21;92.72;100716.38;108744;1264;36822;-72
2022/12/25 01:56:20;;;;;;;25.20;15.50;;;;;;;4.23;93.01;100718.94;108685;1274;37101;-73
2022/12/25 01:58:54;;;;;;;25.70;15.90;;;;;;;4.25;92.93;100714.28;108748;1274;37180;-73
2022/12/25 02:01:29;;;;;;;23.00;15.40;;;;;;;4.26;92.94;100711.85;108808;1274;38718;-73
2022/12/25 02:04:05;;;;;;;24.00;15.10;;;;;;;4.28;93.06;100704.76;108803;1251;38317;-71
2022/12/25 02:06:39;;;;;;;24.40;15.30;;;;;;;4.31;92.51;100703.86;108862;1274;37004;-71
2022/12/25 02:09:13;;;;;;;23.30;14.60;;;;;;;4.31;92.75;100694.89;108823;1274;37109;-72
2022/12/25 02:11:57;;;;;;;22.70;14.40;;;;;;;4.28;92.69;100693.02;108864;1274;36973;-73
2022/12/25 02:19:33;;;;;;;20.00;13.10;;;;;;;4.28;93.19;100702.86;108688;1274;187851;-71
2022/12/25 02:22:11;;;;;;;21.00;13.30;;;;;;;4.34;92.95;100705.76;108440;1278;37042;-74
2022/12/25 02:24:54;;;;;;;21.30;13.70;;;;;;;4.36;92.85;100708.49;108425;1272;37007;-71
2022/12/25 02:27:48;;;;;;;21.70;13.70;;;;;;;4.37;92.93;100700.55;108373;1278;37237;-73
2022/12/25 02:30:22;;;;;;;19.70;12.60;;;;;;;4.36;92.65;100697.61;108420;1261;38358;-73
2022/12/25 02:35:47;;;;;;;19.80;12.80;;;;;;;4.30;92.62;100691.27;108415;1278;37369;-71
2022/12/25 02:38:24;;;;;;;19.10;13.00;;;;;;;4.33;92.89;100688.66;108370;1278;36956;-73
2022/12/25 02:41:00;;;;;;;20.40;12.20;;;;;;;4.35;92.77;100690.03;108399;1276;37420;-73
2022/12/25 03:07:06;;;;;;;20.60;12.00;;;;;;;4.38;92.85;100704.69;108428;1271;37352;-72
2022/12/25 03:12:41;;;;;;;20.70;12.80;;;;;;;4.41;93.00;100699.65;108363;1278;37092;-74
2022/12/25 03:18:12;;;;;;;21.80;13.30;;;;;;;4.46;92.93;100703.23;108436;1276;36996;-74
2022/12/25 03:32:26;;;;;;;23.00;14.10;;;;;;;4.44;92.66;100702.92;108393;1278;37124;-72
2022/12/25 03:35:24;;;;;;;25.00;13.90;;;;;;;4.41;92.73;100707.08;108414;1273;37152;-71
2022/12/25 04:36:13;;;;;;;23.80;15.10;;;;;;;4.49;92.93;100739.86;108415;1263;36133;-73
2022/12/25 04:38:47;;;;;;;26.30;15.50;;;;;;;4.49;92.83;100739.69;108372;1260;37011;-74
2022/12/25 04:41:21;;;;;;;27.70;15.80;;;;;;;4.51;92.78;100741.39;108431;1279;36513;-73
2022/12/25 04:43:56;;;;;;;31.20;17.20;;;;;;;4.51;92.91;100745.02;108377;1261;37106;-73
2022/12/25 04:46:30;;;;;;;28.80;15.80;;;;;;;4.52;93.04;100748.28;108420;1262;37101;-75
2022/12/25 04:49:04;;;;;;;26.90;15.70;;;;;;;4.53;92.91;100747.42;108367;1269;37956;-75
2022/12/25 04:51:38;;;;;;;28.10;16.30;;;;;;;4.55;92.82;100745.67;108428;1262;37299;-76
2022/12/25 04:54:13;;;;;;;31.20;17.80;;;;;;;4.57;93.09;100749.29;108390;1279;37178;-70
2022/12/25 04:56:46;;;;;;;27.90;16.40;;;;;;;4.58;92.79;100743.58;108390;1269;37055;-73
2022/12/25 04:59:24;;;;;;;33.20;17.70;;;;;;;4.60;92.74;100737.70;108374;1279;38160;-73
2022/12/25 05:01:58;;;;;;;28.80;16.00;;;;;;;4.58;92.94;100734.25;108421;1260;39087;-72
2022/12/25 05:04:33;;;;;;;31.20;18.20;;;;;;;4.57;92.63;100739.79;108394;1279;38274;-73
2022/12/25 05:07:07;;;;;;;29.90;16.50;;;;;;;4.57;92.77;100745.48;108393;1267;36739;-74
2022/12/25 05:09:42;;;;;;;29.00;17.10;;;;;;;4.56;92.54;100748.26;108377;1271;38273;-74
2022/12/25 05:12:16;;;;;;;34.70;18.80;;;;;;;4.56;93.06;100751.89;108378;1260;36952;-74
2022/12/25 05:14:50;;;;;;;33.50;18.00;;;;;;;4.58;93.12;100744.80;108415;1262;37211;-72
2022/12/25 05:17:24;;;;;;;32.30;17.70;;;;;;;4.56;92.78;100750.86;108343;1279;37274;-75
2022/12/25 05:19:58;;;;;;;32.80;18.20;;;;;;;4.55;92.75;100752.24;108389;1279;37123;-73
2022/12/25 05:22:32;;;;;;;28.90;16.20;;;;;;;4.57;92.81;100750.66;107967;1278;566100;-73
2022/12/25 05:25:08;;;;;;;30.50;17.30;;;;;;;4.58;93.11;100752.39;108362;1279;37280;-72
2022/12/25 05:27:43;;;;;;;34.40;19.40;;;;;;;4.58;92.86;100753.60;108400;1278;36564;-74
2022/12/25 05:30:18;;;;;;;34.30;18.40;;;;;;;4.59;93.30;100759.48;108403;1258;37730;-71
2022/12/25 05:32:52;;;;;;;30.90;17.70;;;;;;;4.63;93.22;100763.06;108432;1260;37100;-72
2022/12/25 05:35:26;;;;;;;32.90;17.50;;;;;;;4.61;92.72;100763.60;108388;1272;37105;-73
2022/12/25 05:38:01;;;;;;;33.20;19.10;;;;;;;4.62;92.96;100771.70;108370;1279;37272;-74
2022/12/25 05:40:35;;;;;;;31.90;17.60;;;;;;;4.63;92.96;100772.91;108440;1267;37027;-72
2022/12/25 05:43:10;;;;;;;37.90;19.60;;;;;;;4.64;93.35;100773.61;108395;1279;37133;-72
2022/12/25 05:45:44;;;;;;;32.90;19.00;;;;;;;4.66;93.37;100785.86;108311;1279;37551;-72
2022/12/25 05:48:19;;;;;;;34.30;18.70;;;;;;;4.67;93.38;100787.73;108392;1279;36433;-72
2022/12/25 05:50:53;;;;;;;32.70;18.00;;;;;;;4.69;93.21;100786.54;108445;1278;36969;-73
2022/12/25 05:53:27;;;;;;;35.10;19.80;;;;;;;4.71;93.41;100788.23;108416;1279;37048;-72
2022/12/25 05:56:04;;;;;;;32.70;18.50;;;;;;;4.72;93.08;100783.56;108381;1260;36223;-72
2022/12/25 05:58:39;;;;;;;36.40;18.30;;;;;;;4.73;93.32;100780.45;108402;1267;36693;-72
2022/12/25 06:01:18;;;;;;;31.70;18.50;;;;;;;4.75;93.01;100787.01;108290;1256;174935;-73
2022/12/25 06:03:54;;;;;;;31.20;16.50;;;;;;;4.73;93.29;100792.20;108391;1279;38340;-73
2022/12/25 06:06:29;;;;;;;30.10;16.50;;;;;;;4.75;93.23;100798.07;108424;1278;37285;-73
2022/12/25 06:09:04;;;;;;;28.90;16.60;;;;;;;4.77;92.92;100809.45;108428;1279;37238;-72
2022/12/25 06:11:38;;;;;;;31.50;17.30;;;;;;;4.82;93.44;100817.70;108406;1272;38286;-74
2022/12/25 06:14:14;;;;;;;33.00;18.40;;;;;;;4.84;93.34;100817.70;108426;1275;37170;-73
2022/12/25 06:16:52;;;;;;;33.90;17.20;;;;;;;4.87;93.49;100815.59;108404;1264;37065;-74
2022/12/25 06:19:27;;;;;;;26.50;15.80;;;;;;;4.86;93.05;100816.48;108416;1279;37425;-72
2022/12/25 06:22:02;;;;;;;30.20;17.50;;;;;;;4.86;93.18;100829.27;108393;1278;38361;-75
2022/12/25 06:24:37;;;;;;;31.70;18.00;;;;;;;4.89;93.35;100833.75;108412;1262;36965;-72
2022/12/25 06:27:11;;;;;;;34.40;18.30;;;;;;;4.92;93.16;100839.07;108426;1258;37206;-74
2022/12/25 06:29:45;;;;;;;33.50;18.60;;;;;;;4.92;93.06;100838.89;108487;1267;37145;-74
2022/12/25 06:32:19;;;;;;;33.20;17.40;;;;;;;4.94;93.23;100842.53;108291;1257;174932;-73
2022/12/25 06:34:53;;;;;;;29.00;17.00;;;;;;;4.93;93.04;100842.70;108392;1279;37101;-74
2022/12/25 06:37:27;;;;;;;32.90;17.90;;;;;;;4.93;92.87;100852.90;108419;1262;37600;-74
2022/12/25 06:40:02;;;;;;;32.50;17.80;;;;;;;4.92;92.72;100860.00;108329;1279;36973;-71
2022/12/25 06:42:36;;;;;;;35.10;18.80;;;;;;;4.97;93.16;100865.84;108435;1255;37651;-72
2022/12/25 06:45:12;;;;;;;40.90;21.10;;;;;;;4.99;93.12;100872.23;108440;1261;36387;-75
2022/12/25 06:47:46;;;;;;;37.90;19.00;;;;;;;4.98;93.12;100871.36;108261;1275;175000;-74
2022/12/25 06:50:21;;;;;;;39.00;19.90;;;;;;;4.96;92.81;100878.81;108419;1267;37161;-71
2022/12/25 06:52:55;;;;;;;41.10;20.60;;;;;;;4.93;92.76;100882.29;108429;1279;38403;-74
2022/12/25 06:55:30;;;;;;;42.70;21.70;;;;;;;4.89;93.04;100883.36;108418;1264;37959;-71
2022/12/25 06:58:06;;;;;;;44.40;23.00;;;;;;;4.94;93.36;100890.25;108388;1258;38900;-72
2022/12/25 07:00:40;;;;;;;48.30;24.30;;;;;;;5.00;93.61;100896.95;108427;1279;36968;-73
2022/12/25 07:03:20;;;;;;;47.80;22.70;;;;;;;5.05;93.56;100902.96;108419;1260;36075;-73
2022/12/25 07:05:57;;;;;;;46.70;22.70;;;;;;;5.07;93.60;100908.98;108436;1268;37006;-73
2022/12/25 07:08:31;;;;;;;48.00;23.20;;;;;;;5.08;93.55;100909.51;108439;1256;37199;-73
2022/12/25 07:11:06;;;;;;;42.60;22.40;;;;;;;5.12;93.33;100919.17;108413;1268;37119;-73
2022/12/25 07:13:40;;;;;;;47.40;24.40;;;;;;;5.13;93.14;100920.21;108434;1279;38196;-73
2022/12/25 07:16:15;;;;;;;42.20;22.80;;;;;;;5.14;93.15;100921.06;108439;1279;37370;-71
2022/12/25 07:18:49;;;;;;;44.80;22.60;;;;;;;5.15;93.24;100923.12;108418;1263;37147;-70
2022/12/25 07:21:23;;;;;;;41.50;22.30;;;;;;;5.16;93.16;100925.88;108384;1274;37074;-73
2022/12/25 07:23:58;;;;;;;43.30;23.40;;;;;;;5.16;93.10;100928.98;108405;1260;36495;-71
2022/12/25 07:26:33;;;;;;;39.10;22.60;;;;;;;5.22;93.14;100931.54;108419;1279;37104;-71
2022/12/25 07:29:07;;;;;;;41.10;22.80;;;;;;;5.26;93.19;100936.00;108385;1256;37107;-74
2022/12/25 07:31:42;;;;;;;41.00;23.50;;;;;;;5.26;92.79;100936.89;108422;1279;36980;-70
2022/12/25 07:34:16;;;;;;;43.90;22.60;;;;;;;5.27;93.00;100933.92;108413;1256;37322;-71
2022/12/25 07:36:50;;;;;;;38.10;22.10;;;;;;;5.27;92.99;100943.27;108401;1261;37047;-73
2022/12/25 07:39:28;;;;;;;40.80;22.50;;;;;;;5.28;92.74;100950.02;108415;1256;37106;-73
2022/12/25 07:42:03;;;;;;;38.60;20.70;;;;;;;5.27;92.45;100947.95;108398;1256;36245;-75
2022/12/25 07:44:37;;;;;;;39.60;22.00;;;;;;;5.28;92.55;100948.98;108391;1279;37139;-72
2022/12/25 07:47:11;;;;;;;40.70;22.20;;;;;;;5.30;92.81;100955.52;108402;1269;36540;-73
2022/12/25 07:49:45;;;;;;;41.80;22.30;;;;;;;5.31;92.59;100964.36;108432;1279;36997;-72
2022/12/25 07:52:19;;;;;;;38.20;21.30;;;;;;;5.28;92.07;100970.77;108406;1279;37362;-71
2022/12/25 07:54:55;;;;;;;38.60;21.30;;;;;;;5.26;92.24;100977.88;108405;1279;36784;-72
2022/12/25 07:57:29;;;;;;;39.30;22.20;;;;;;;5.28;92.27;100982.20;108380;1278;36393;-71
2022/12/25 08:00:09;;;;;;;41.10;21.80;;;;;;;5.30;92.55;100983.73;108392;1263;36740;-75
2022/12/25 08:02:44;;;;;;;43.50;23.50;;;;;;;5.35;92.67;100984.22;108418;1279;37218;-75
2022/12/25 08:05:18;;;;;;;39.40;22.00;;;;;;;5.34;92.49;100983.88;108402;1260;39250;-74
2022/12/25 08:07:55;;;;;;;44.40;22.70;;;;;;;5.31;92.26;100989.09;108382;1260;37323;-74
2022/12/25 08:10:29;;;;;;;37.50;21.70;;;;;;;5.32;92.46;100990.81;108405;1259;37278;-75
2022/12/25 08:13:03;;;;;;;39.70;21.10;;;;;;;5.32;92.10;100996.86;108419;1267;38164;-73
2022/12/25 08:15:37;;;;;;;42.30;23.40;;;;;;;5.28;91.88;100995.85;108425;1278;37328;-74
2022/12/25 08:18:12;;;;;;;46.00;24.50;;;;;;;5.27;92.16;101002.42;108384;1279;37030;-73
2022/12/25 08:20:46;;;;;;;49.30;25.20;;;;;;;5.25;92.13;101001.07;107618;1260;908991;-74
2022/12/25 08:23:20;;;;;;;54.60;26.70;;;;;;;5.24;92.08;101003.14;108374;1270;37098;-72
2022/12/25 08:25:54;;;;;;;48.20;25.50;;;;;;;5.25;92.11;101003.83;108423;1260;36331;-71
2022/12/25 08:28:28;;;;;;;51.10;26.90;;;;;;;5.26;92.27;101000.36;108422;1260;37164;-72
2022/12/25 08:31:08;;;;;;;44.90;24.50;;;;;;;5.30;92.44;101003.98;108408;1278;37048;-72
2022/12/25 08:33:42;;;;;;;49.10;26.50;;;;;;;5.31;92.44;101012.26;108319;1260;37494;-75
2022/12/25 08:36:16;;;;;;;51.10;25.60;;;;;;;5.31;92.29;101013.13;108331;1279;174947;-71
2022/12/25 08:38:50;;;;;;;45.90;24.30;;;;;;;5.33;92.53;101020.05;108402;1256;37145;-73
2022/12/25 08:41:24;;;;;;;47.70;24.50;;;;;;;5.34;92.46;101026.09;108380;1278;38311;-74
2022/12/25 08:44:01;;;;;;;40.60;23.50;;;;;;;5.38;92.78;101031.44;108382;1278;37186;-73
2022/12/25 08:46:35;;;;;;;46.50;26.20;;;;;;;5.42;92.50;101034.02;108388;1261;37234;-72
2022/12/25 08:49:10;;;;;;;43.50;24.60;;;;;;;5.45;92.58;101041.59;108390;1261;37131;-74
2022/12/25 08:51:46;;;;;;;36.80;21.40;;;;;;;5.48;92.99;101045.05;108399;1256;37328;-75
2022/12/25 08:54:27;;;;;;;37.30;21.40;;;;;;;5.47;92.59;101048.50;108273;1256;174613;-74
2022/12/25 08:57:02;;;;;;;37.00;21.00;;;;;;;5.46;92.34;101050.60;108363;1258;37311;-72
2022/12/25 08:59:36;;;;;;;40.40;21.70;;;;;;;5.47;92.43;101049.54;108443;1260;36843;-71
2022/12/25 09:02:11;;;;;;;45.60;25.10;;;;;;;5.47;92.24;101052.84;108410;1256;37428;-74
2022/12/25 09:04:46;;;;;;;46.10;25.90;;;;;;;5.45;92.32;101057.86;108384;1278;36980;-72
2022/12/25 09:07:20;;;;;;;43.70;22.90;;;;;;;5.42;92.02;101060.31;108361;1262;36302;-72
2022/12/25 09:09:54;;;;;;;39.70;22.60;;;;;;;5.41;92.55;101063.94;108416;1279;36292;-72
2022/12/25 09:12:28;;;;;;;38.00;21.10;;;;;;;5.43;92.47;101063.08;108405;1278;38631;-73
2022/12/25 09:15:03;;;;;;;39.10;22.30;;;;;;;5.44;92.38;101067.40;108399;1264;37051;-74
2022/12/25 09:17:37;;;;;;;32.70;20.50;;;;;;;5.40;92.15;101066.04;108387;1260;36976;-73
2022/12/25 09:20:12;;;;;;;34.70;20.70;;;;;;;5.39;92.40;101065.51;108420;1278;37179;-72
2022/12/25 09:22:47;;;;;;;40.40;21.00;;;;;;;5.40;92.22;101062.56;108409;1260;37425;-74
2022/12/25 09:25:22;;;;;;;34.40;20.50;;;;;;;5.41;92.38;101064.81;108489;1278;36496;-74
2022/12/25 09:27:57;;;;;;;34.30;19.60;;;;;;;5.40;92.30;101065.85;108419;1258;36986;-71
2022/12/25 09:30:31;;;;;;;33.40;19.50;;;;;;;5.43;92.41;101066.53;108454;1256;39040;-71
2022/12/25 09:33:05;;;;;;;34.60;19.60;;;;;;;5.52;92.92;101070.11;108447;1263;37041;-73
2022/12/25 09:35:40;;;;;;;38.10;21.70;;;;;;;5.58;93.00;101074.75;108450;1278;37276;-71
2022/12/25 09:38:14;;;;;;;33.70;19.50;;;;;;;5.64;93.20;101066.73;108450;1267;37617;-72
2022/12/25 09:40:48;;;;;;;37.20;21.90;;;;;;;5.70;92.70;101060.30;108423;1278;37955;-73
2022/12/25 09:43:22;;;;;;;35.50;21.50;;;;;;;5.70;92.43;101053.20;108412;1258;39327;-73
2022/12/25 09:45:59;;;;;;;36.50;20.60;;;;;;;5.71;92.29;101049.38;108420;1278;37094;-71
2022/12/25 09:48:33;;;;;;;33.20;20.30;;;;;;;5.73;92.44;101055.80;108444;1267;37485;-71
2022/12/25 09:51:13;;;;;;;37.70;22.10;;;;;;;5.76;92.47;101052.30;108429;1256;37085;-71
2022/12/25 09:53:55;;;;;;;35.20;20.50;;;;;;;5.83;92.72;101057.09;108419;1260;36971;-70
2022/12/25 09:56:30;;;;;;;37.00;21.80;;;;;;;5.89;92.79;101062.06;108496;1268;36117;-74
2022/12/25 09:59:04;;;;;;;37.40;23.30;;;;;;;5.95;92.63;101062.75;108431;1278;36305;-71
2022/12/25 10:01:44;;;;;;;36.20;22.10;;;;;;;5.99;92.41;101060.29;108449;1278;37087;-73
2022/12/25 10:04:36;;;;;;;37.70;24.00;;;;;;;6.01;92.62;101055.95;108432;1256;37166;-72
2022/12/25 10:07:14;;;;;;;36.20;20.90;;;;;;;6.02;92.21;101050.04;108478;1265;36640;-73
2022/12/25 10:09:59;;;;;;;36.40;20.10;;;;;;;6.04;92.20;101047.95;108436;1271;37055;-72
2022/12/25 10:12:44;;;;;;;34.80;21.90;;;;;;;6.06;92.06;101052.26;108410;1258;37056;-71
2022/12/25 10:15:34;;;;;;;36.40;20.50;;;;;;;6.10;92.07;101050.66;108476;1278;37115;-71
2022/12/25 10:18:46;;;;;;;36.80;21.50;;;;;;;6.13;91.90;101051.34;108312;1273;35986;-72
2022/12/25 10:21:21;;;;;;;37.80;21.40;;;;;;;6.12;91.75;101054.64;108349;1256;37602;-74
2022/12/25 10:24:00;;;;;;;38.70;20.80;;;;;;;6.14;91.60;101058.77;108399;1259;36096;-74
2022/12/25 10:26:36;;;;;;;36.00;19.70;;;;;;;6.16;91.86;101063.45;108474;1260;38260;-74
2022/12/25 10:29:25;;;;;;;27.10;16.30;;;;;;;6.20;91.91;101061.33;108374;1264;37641;-73
2022/12/25 10:32:03;;;;;;;28.90;18.70;;;;;;;6.19;91.32;101061.67;108417;1273;37275;-73
2022/12/25 10:34:38;;;;;;;31.40;18.80;;;;;;;6.19;91.42;101062.71;108454;1256;37168;-70
2022/12/25 10:37:14;;;;;;;31.90;19.40;;;;;;;6.16;91.04;101064.65;108447;1271;37149;-70
2022/12/25 10:39:48;;;;;;;26.20;15.70;;;;;;;6.13;90.73;101058.26;108439;1268;38272;-73
2022/12/25 10:42:38;;;;;;;23.40;14.40;;;;;;;6.09;90.52;101056.91;108333;1262;37636;-75
2022/12/25 10:45:14;;;;;;;26.10;16.00;;;;;;;6.06;90.37;101065.94;108437;1278;37168;-72
2022/12/25 10:47:48;;;;;;;24.10;15.70;;;;;;;6.04;90.36;101074.09;108389;1263;36496;-72
2022/12/25 10:50:28;;;;;;;23.20;14.60;;;;;;;6.03;90.41;101077.05;108437;1255;36183;-71
2022/12/25 10:53:08;;;;;;;22.50;14.50;;;;;;;6.01;90.50;101075.52;108448;1261;36233;-74
2022/12/25 10:55:45;;;;;;;23.20;13.70;;;;;;;6.01;90.74;101072.40;108475;1278;36996;-73
2022/12/25 10:58:24;;;;;;;24.00;14.90;;;;;;;6.03;90.74;101074.11;108460;1262;37087;-72
2022/12/25 11:01:00;;;;;;;22.30;14.50;;;;;;;6.04;90.60;101071.31;108422;1279;36805;-73
2022/12/25 11:03:37;;;;;;;22.60;14.50;;;;;;;6.08;90.48;101071.48;108447;1260;37020;-74
2022/12/25 11:06:26;;;;;;;22.50;13.80;;;;;;;6.08;90.33;101071.46;108300;1260;176895;-74
2022/12/25 11:09:51;;;;;;;1086.00;139.30;;;;;;;6.15;91.88;101061.00;105153;1308;545003;-71
2022/12/25 11:12:28;;;;;;;48.10;27.10;;;;;;;6.66;95.98;101059.30;107878;1270;37303;-74
2022/12/25 11:15:34;;;;;;;36.90;20.20;;;;;;;6.67;91.83;101055.13;107902;1270;36998;-76
2022/12/25 11:18:19;;;;;;;22.30;14.10;;;;;;;6.63;90.35;101057.42;107904;1270;37512;-77
2022/12/25 11:20:57;;;;;;;20.20;12.70;;;;;;;6.58;89.81;101054.19;107921;1268;37361;-73
2022/12/25 11:23:32;;;;;;;19.40;13.20;;;;;;;6.54;89.72;101055.98;107499;1264;671936;-72
2022/12/25 11:26:10;;;;;;;21.10;13.00;;;;;;;6.53;89.87;101054.07;108025;1281;37030;-71
2022/12/25 11:28:44;;;;;;;21.20;12.60;;;;;;;6.54;89.63;101047.64;108011;1284;37106;-72
2022/12/25 11:31:21;;;;;;;23.80;14.00;;;;;;;6.58;89.90;101049.16;108170;1283;36148;-74
2022/12/25 11:34:00;;;;;;;23.60;14.70;;;;;;;6.60;89.35;101049.66;108133;1260;37086;-74
2022/12/25 11:36:45;;;;;;;23.20;14.50;;;;;;;6.59;89.21;101047.59;108131;1283;36190;-75
2022/12/25 11:39:29;;;;;;;22.50;14.50;;;;;;;6.57;89.15;101047.27;108176;1267;36002;-75
2022/12/25 11:42:07;;;;;;;24.30;14.80;;;;;;;6.56;88.82;101043.29;108138;1283;38063;-68
2022/12/25 11:44:50;;;;;;;26.40;15.00;;;;;;;6.53;88.67;101044.54;108167;1273;37202;-73
2022/12/25 11:47:26;;;;;;;27.80;15.20;;;;;;;6.47;88.34;101045.46;108112;1272;37175;-72
2022/12/25 11:50:15;;;;;;;27.50;16.40;;;;;;;6.41;88.05;101047.60;108195;1283;36129;-69
2022/12/25 11:52:49;;;;;;;26.20;16.30;;;;;;;6.39;88.72;101050.05;108160;1283;37129;-74
2022/12/25 11:55:29;;;;;;;24.90;15.60;;;;;;;6.37;88.33;101055.61;108557;1266;37105;-73
2022/12/25 11:58:06;;;;;;;27.90;16.90;;;;;;;6.30;88.08;101063.66;108566;1277;37337;-76
2022/12/25 12:00:42;;;;;;;27.00;16.20;;;;;;;6.27;88.28;101062.98;108608;1263;37034;-75
2022/12/25 12:03:20;;;;;;;26.70;17.70;;;;;;;6.25;88.65;101069.07;108608;1260;36354;-78
2022/12/25 12:05:58;;;;;;;43.90;25.20;;;;;;;6.21;88.82;101062.70;108617;1277;37201;-78
2022/12/25 12:08:39;;;;;;;54.50;34.10;;;;;;;6.20;88.85;101062.00;108435;1256;38727;-75
2022/12/25 12:11:24;;;;;;;52.80;32.80;;;;;;;6.20;88.80;101066.00;108546;1259;36588;-74
2022/12/25 12:14:16;;;;;;;38.80;22.30;;;;;;;6.16;88.88;101064.98;108796;1254;37182;-73
2022/12/25 12:16:51;;;;;;;37.80;21.70;;;;;;;6.14;88.84;101064.66;108838;1264;37337;-75
2022/12/25 12:19:34;;;;;;;29.70;18.80;;;;;;;6.13;88.95;101069.35;108795;1264;37128;-75
2022/12/25 12:22:17;;;;;;;35.70;20.20;;;;;;;6.12;89.10;101072.84;108796;1256;36581;-75
2022/12/25 12:24:56;;;;;;;32.50;20.30;;;;;;;6.12;89.23;101080.45;108793;1253;38360;-74
2022/12/25 12:27:35;;;;;;;35.90;19.40;;;;;;;6.14;89.24;101081.11;108973;1275;36193;-71
2022/12/25 12:30:22;;;;;;;;;;;;;;;6.11;88.98;101078.71;108729;1260;37426;-68
2022/12/25 12:33:00;;;;;;;31.40;19.50;;;;;;;6.06;89.03;101084.82;108877;1267;37339;-70
2022/12/25 12:35:43;;;;;;;31.40;18.70;;;;;;;6.08;89.28;101091.05;108860;1260;40136;-70
2022/12/25 12:38:21;;;;;;;30.60;19.70;;;;;;;6.09;89.28;101086.86;108802;1257;37195;-72
2022/12/25 12:41:01;;;;;;;31.80;19.30;;;;;;;6.07;89.00;101082.21;108846;1264;36961;-73
2022/12/25 12:43:39;;;;;;;34.30;20.30;;;;;;;6.03;88.69;101076.54;108800;1256;37235;-69
2022/12/25 12:46:21;;;;;;;33.10;19.10;;;;;;;6.04;89.16;101069.08;108807;1257;36989;-77
2022/12/25 12:49:26;;;;;;;38.80;20.90;;;;;;;6.11;89.11;101066.61;108697;1257;37799;-76
2022/12/25 12:52:24;;;;;;;33.80;20.10;;;;;;;6.14;89.01;101067.25;108777;1266;38551;-75
2022/12/25 12:55:03;;;;;;;36.30;21.00;;;;;;;6.14;89.07;101064.31;108874;1265;37063;-73
2022/12/25 12:57:39;;;;;;;40.30;23.30;;;;;;;6.10;88.76;101066.77;108848;1254;37007;-75
2022/12/25 13:00:21;;;;;;;37.60;22.30;;;;;;;6.05;88.42;101069.42;108878;1251;37580;-70
2022/12/25 13:03:36;;;;;;;33.40;20.50;;;;;;;6.03;88.66;101069.42;108877;1273;37064;-74
2022/12/25 13:06:17;;;;;;;39.00;22.00;;;;;;;6.04;88.85;101064.91;108907;1259;37148;-69
2022/12/25 13:09:01;;;;;;;35.80;20.40;;;;;;;6.04;88.83;101057.47;108840;1273;37291;-68
2022/12/25 13:11:38;;;;;;;36.40;21.20;;;;;;;6.01;88.87;101055.08;108787;1260;36289;-72
2022/12/25 13:14:20;;;;;;;36.80;24.30;;;;;;;6.01;89.17;101055.42;108822;1268;37102;-75
2022/12/25 13:16:55;;;;;;;36.40;21.30;;;;;;;6.04;89.36;101052.61;108870;1253;37005;-71
2022/12/25 13:19:31;;;;;;;34.60;19.50;;;;;;;6.06;89.20;101053.64;108839;1274;37430;-72
2022/12/25 13:22:08;;;;;;;34.90;20.50;;;;;;;6.06;89.16;101061.61;108845;1257;36027;-73
2022/12/25 13:24:42;;;;;;;46.70;27.80;;;;;;;6.05;88.95;101072.01;108858;1274;37693;-72
2022/12/25 13:27:27;;;;;;;31.40;18.80;;;;;;;6.01;88.82;101081.41;108816;1263;37068;-72
2022/12/25 13:30:11;;;;;;;31.20;18.10;;;;;;;5.98;88.81;101086.79;108838;1251;36813;-72
2022/12/25 13:32:48;;;;;;;30.70;18.20;;;;;;;5.96;88.94;101088.72;108872;1250;37391;-73
2022/12/25 13:35:22;;;;;;;28.30;17.70;;;;;;;5.92;89.03;101088.73;108856;1257;36566;-73
2022/12/25 13:37:57;;;;;;;32.80;18.00;;;;;;;5.88;89.05;101082.50;108862;1256;37055;-69
2022/12/25 13:40:35;;;;;;;27.10;16.90;;;;;;;5.89;89.18;101085.78;108867;1251;37836;-75
2022/12/25 13:43:17;;;;;;;28.50;16.10;;;;;;;5.89;89.27;101085.62;108878;1251;37284;-74
2022/12/25 13:45:58;;;;;;;28.20;17.50;;;;;;;5.89;89.28;101085.44;108880;1251;38557;-69